Time;durP1;ratioP1;P1;durP2;ratioP2;P2;SDS_P1;SDS_P2;PMS_P1;PMS_P2;Temp;Humidity;BMP_temperature;BMP_pressure;BME280_temperature;BME280_humidity;BME280_pressure;Samples;Min_cycle;Max_cycle;Signal;HPM_P1;HPM_P2
2023/12/31 00:00:56;;;;;;;3.63;2.88;;;9.10;68.40;;;;;;5095710;28;20405;-69
2023/12/31 00:03:21;;;;;;;3.78;3.03;;;9.10;68.40;;;;;;5103810;28;20020;-68
2023/12/31 00:05:47;;;;;;;3.45;2.90;;;9.10;68.40;;;;;;5112150;28;20393;-68
2023/12/31 00:08:14;;;;;;;3.40;3.10;;;9.00;68.80;;;;;;5114003;28;20530;-68
2023/12/31 00:10:40;;;;;;;3.63;3.00;;;9.10;68.40;;;;;;5114784;28;20035;-68
2023/12/31 00:13:06;;;;;;;3.60;2.90;;;9.00;68.30;;;;;;5115500;28;20385;-69
2023/12/31 00:15:32;;;;;;;3.72;3.00;;;9.00;68.30;;;;;;5116390;28;20019;-68
2023/12/31 00:17:58;;;;;;;3.00;2.70;;;9.00;68.30;;;;;;5115947;28;20506;-69
2023/12/31 00:20:23;;;;;;;4.40;3.10;;;9.00;68.30;;;;;;5116112;28;20020;-69
2023/12/31 00:22:49;;;;;;;4.20;3.10;;;9.00;68.20;;;;;;5132922;28;20457;-69
2023/12/31 00:25:15;;;;;;;3.28;2.97;;;9.00;68.20;;;;;;5134356;28;20370;-69
2023/12/31 00:27:41;;;;;;;2.70;2.47;;;9.00;68.20;;;;;;5134456;28;20027;-68
2023/12/31 00:30:08;;;;;;;3.05;2.78;;;9.00;68.10;;;;;;5115918;28;20041;-69
2023/12/31 00:32:34;;;;;;;3.10;2.80;;;9.00;68.20;;;;;;5115291;28;20035;-70
2023/12/31 00:34:59;;;;;;;3.05;2.75;;;9.00;68.20;;;;;;5134089;28;20031;-70
2023/12/31 00:37:26;;;;;;;3.30;2.97;;;9.00;68.10;;;;;;5115935;28;20031;-69
2023/12/31 00:39:51;;;;;;;3.45;2.92;;;9.00;68.10;;;;;;5133533;27;20035;-70
2023/12/31 00:42:17;;;;;;;3.50;3.08;;;9.00;68.10;;;;;;5117653;27;20027;-68
2023/12/31 00:44:43;;;;;;;3.60;2.80;;;9.00;68.10;;;;;;5119701;27;20065;-68
2023/12/31 00:47:09;;;;;;;2.80;2.58;;;9.00;68.00;;;;;;5119203;27;20058;-69
2023/12/31 00:49:35;;;;;;;2.72;2.50;;;9.00;68.00;;;;;;5119516;27;20031;-68
2023/12/31 00:52:00;;;;;;;2.70;2.50;;;9.00;67.90;;;;;;5138264;27;20034;-68
2023/12/31 00:54:27;;;;;;;3.05;2.72;;;8.90;67.90;;;;;;5133168;27;20504;-69
2023/12/31 00:56:53;;;;;;;2.70;2.50;;;8.90;68.00;;;;;;5118555;27;20031;-71
2023/12/31 00:59:19;;;;;;;2.83;2.40;;;8.90;67.90;;;;;;5119347;27;20039;-69
2023/12/31 01:01:44;;;;;;;2.65;2.45;;;8.90;67.90;;;;;;5119369;27;20058;-69
2023/12/31 01:04:10;;;;;;;2.80;2.60;;;8.90;67.80;;;;;;5117292;27;20461;-68
2023/12/31 01:06:36;;;;;;;2.40;2.20;;;8.80;67.80;;;;;;5115621;28;20461;-69
2023/12/31 01:09:02;;;;;;;2.97;2.40;;;8.90;67.80;;;;;;5117723;27;20026;-68
2023/12/31 01:11:28;;;;;;;2.50;2.30;;;8.80;67.70;;;;;;5124328;27;20028;-68
2023/12/31 01:13:54;;;;;;;3.00;2.50;;;8.80;68.20;;;;;;5118734;27;20072;-67
2023/12/31 01:16:20;;;;;;;2.40;2.20;;;8.80;67.70;;;;;;5118689;27;20034;-69
2023/12/31 01:18:45;;;;;;;2.63;2.30;;;8.80;67.60;;;;;;5137336;27;20028;-68
2023/12/31 01:21:11;;;;;;;2.55;2.35;;;8.80;67.50;;;;;;5137292;27;20106;-68
2023/12/31 01:23:37;;;;;;;2.47;2.00;;;8.70;67.50;;;;;;5115420;27;20031;-69
2023/12/31 01:26:03;;;;;;;2.22;2.03;;;8.70;67.40;;;;;;5133242;27;20027;-68
2023/12/31 01:28:29;;;;;;;2.40;2.20;;;8.70;67.40;;;;;;5120707;27;20084;-68
2023/12/31 01:30:55;;;;;;;2.17;2.03;;;8.70;67.30;;;;;;5130115;27;20054;-68
2023/12/31 01:33:21;;;;;;;2.22;1.98;;;8.60;67.20;;;;;;5137038;27;20031;-68
2023/12/31 01:35:47;;;;;;;2.05;1.95;;;8.60;67.10;;;;;;5115315;28;20038;-68
2023/12/31 01:38:13;;;;;;;2.17;2.08;;;8.60;67.10;;;;;;5115714;27;20042;-68
2023/12/31 01:40:38;;;;;;;4.82;1.80;;;8.60;67.10;;;;;;5115691;28;20031;-68
2023/12/31 01:43:04;;;;;;;2.17;1.95;;;8.60;67.10;;;;;;5118351;27;20092;-68
2023/12/31 01:45:30;;;;;;;2.00;1.90;;;8.60;67.00;;;;;;5122311;27;20024;-68
2023/12/31 01:47:56;;;;;;;2.30;2.10;;;8.50;66.80;;;;;;5116056;28;20119;-68
2023/12/31 01:50:22;;;;;;;2.08;1.98;;;8.50;66.80;;;;;;5114982;27;20116;-69
2023/12/31 01:52:48;;;;;;;2.00;1.90;;;8.50;67.30;;;;;;5116323;28;20124;-68
2023/12/31 01:55:15;;;;;;;2.20;1.80;;;8.50;66.70;;;;;;5130261;27;20027;-69
2023/12/31 01:57:41;;;;;;;1.88;1.77;;;8.40;66.60;;;;;;5114196;28;20091;-69
2023/12/31 02:00:09;;;;;;;2.17;1.98;;;8.40;66.60;;;;;;5116060;27;20047;-71
2023/12/31 02:02:36;;;;;;;2.00;1.90;;;8.40;66.60;;;;;;5116360;28;20039;-67
2023/12/31 02:05:02;;;;;;;2.10;1.90;;;8.40;66.60;;;;;;5118388;27;20023;-68
2023/12/31 02:07:27;;;;;;;1.90;1.80;;;8.40;66.60;;;;;;5123154;27;20065;-69
2023/12/31 02:09:53;;;;;;;1.92;1.83;;;8.50;66.60;;;;;;5136469;27;20106;-68
2023/12/31 02:12:20;;;;;;;2.20;2.00;;;8.50;66.60;;;;;;5117615;27;20076;-68
2023/12/31 02:14:45;;;;;;;1.90;1.80;;;8.40;66.50;;;;;;5136383;27;20019;-68
2023/12/31 02:17:11;;;;;;;2.20;2.00;;;8.40;66.40;;;;;;5117787;27;20571;-69
2023/12/31 02:19:37;;;;;;;2.03;1.85;;;8.40;66.30;;;;;;5136720;27;20042;-67
2023/12/31 02:22:03;;;;;;;2.20;2.00;;;8.40;66.30;;;;;;5136222;27;20034;-70
2023/12/31 02:24:47;;;;;;;2.10;2.00;;;8.40;66.40;;;;;;5128911;27;20023;-68
2023/12/31 02:27:13;;;;;;;2.00;1.90;;;8.40;66.30;;;;;;5099933;28;20496;-71
2023/12/31 02:29:39;;;;;;;2.00;1.48;;;8.40;66.30;;;;;;5115853;28;20036;-68
2023/12/31 02:32:05;;;;;;;1.77;1.67;;;8.50;66.30;;;;;;5097311;28;20068;-69
2023/12/31 02:34:31;;;;;;;1.63;1.52;;;8.50;66.30;;;;;;5115814;28;20023;-69
2023/12/31 02:36:57;;;;;;;1.60;1.50;;;8.50;66.30;;;;;;5097249;28;20119;-69
2023/12/31 02:39:24;;;;;;;1.70;1.60;;;8.50;66.80;;;;;;5097321;28;20372;-69
2023/12/31 02:41:50;;;;;;;1.83;1.70;;;8.50;66.20;;;;;;5112585;27;20034;-68
2023/12/31 02:44:17;;;;;;;1.80;1.70;;;8.50;66.10;;;;;;5116674;27;20114;-69
2023/12/31 02:46:43;;;;;;;1.80;1.70;;;8.50;66.10;;;;;;5134307;27;20050;-68
2023/12/31 02:49:11;;;;;;;1.88;1.77;;;8.50;66.00;;;;;;5114117;28;20028;-69
2023/12/31 02:51:37;;;;;;;1.73;1.63;;;8.50;66.00;;;;;;5113874;28;20401;-68
2023/12/31 02:54:03;;;;;;;1.88;1.77;;;8.50;66.00;;;;;;5115416;28;20427;-68
2023/12/31 02:56:29;;;;;;;1.77;1.67;;;8.50;66.00;;;;;;5114766;27;20062;-69
2023/12/31 02:58:54;;;;;;;1.85;1.75;;;8.50;65.90;;;;;;5116479;27;20434;-68
2023/12/31 03:01:21;;;;;;;1.75;1.65;;;8.50;65.90;;;;;;5113305;28;20058;-68
2023/12/31 03:03:46;;;;;;;1.95;1.85;;;8.60;65.90;;;;;;5113110;28;20055;-68
2023/12/31 03:06:14;;;;;;;1.85;1.75;;;8.50;65.90;;;;;;5113102;28;20062;-69
2023/12/31 03:08:40;;;;;;;1.80;1.70;;;8.50;65.90;;;;;;5133980;27;20059;-68
2023/12/31 03:11:09;;;;;;;2.20;2.03;;;8.50;65.90;;;;;;5129383;27;20055;-68
2023/12/31 03:13:35;;;;;;;1.73;1.63;;;8.50;65.90;;;;;;5116769;27;20023;-69
2023/12/31 03:16:06;;;;;;;1.90;1.80;;;8.50;65.90;;;;;;5113201;28;20035;-69
2023/12/31 03:18:32;;;;;;;2.00;1.90;;;8.40;65.90;;;;;;5114730;28;20073;-69
2023/12/31 03:20:58;;;;;;;1.80;1.70;;;8.40;65.90;;;;;;5116350;27;20393;-70
2023/12/31 03:23:24;;;;;;;2.20;2.00;;;8.40;66.00;;;;;;5121907;27;20046;-69
2023/12/31 03:25:50;;;;;;;1.73;1.63;;;8.40;66.00;;;;;;5102224;28;20028;-70
2023/12/31 03:28:15;;;;;;;1.90;1.80;;;8.40;66.00;;;;;;5114358;28;20103;-69
2023/12/31 03:30:41;;;;;;;2.47;1.90;;;8.50;66.00;;;;;;5096301;28;20027;-70
2023/12/31 03:33:07;;;;;;;1.90;1.80;;;8.50;66.00;;;;;;5114616;28;20035;-70
2023/12/31 03:35:33;;;;;;;1.80;1.70;;;8.40;65.90;;;;;;5114651;28;20089;-70
2023/12/31 03:37:59;;;;;;;2.42;1.77;;;8.40;65.90;;;;;;5096605;28;20032;-69
2023/12/31 03:40:26;;;;;;;1.90;1.80;;;8.40;66.00;;;;;;5114866;27;20023;-70
2023/12/31 03:42:52;;;;;;;1.90;1.80;;;8.40;66.00;;;;;;5135128;27;20023;-69
2023/12/31 03:45:18;;;;;;;2.25;1.95;;;8.40;66.00;;;;;;5134847;27;20023;-70
2023/12/31 03:47:44;;;;;;;1.70;1.60;;;8.40;66.00;;;;;;5116300;27;20076;-68
2023/12/31 03:50:11;;;;;;;1.90;1.80;;;8.30;66.00;;;;;;5112742;28;20118;-68
2023/12/31 03:52:38;;;;;;;1.88;1.77;;;8.30;66.00;;;;;;5112995;28;20024;-68
2023/12/31 03:55:04;;;;;;;1.90;1.77;;;8.30;66.10;;;;;;5122959;27;20027;-69
2023/12/31 03:57:30;;;;;;;2.13;1.92;;;8.30;66.10;;;;;;5125682;27;20039;-68
2023/12/31 03:59:56;;;;;;;2.00;1.90;;;8.40;66.20;;;;;;5113974;27;20027;-70
2023/12/31 04:02:22;;;;;;;2.35;1.95;;;8.30;66.10;;;;;;5115626;28;20105;-68
2023/12/31 04:04:47;;;;;;;1.90;1.80;;;8.30;66.10;;;;;;5133307;28;20031;-69
2023/12/31 04:07:13;;;;;;;2.28;1.80;;;8.30;66.00;;;;;;5115825;28;20019;-68
2023/12/31 04:09:39;;;;;;;2.22;1.92;;;8.30;66.10;;;;;;5115007;28;20027;-68
2023/12/31 04:12:05;;;;;;;2.33;1.80;;;8.30;66.70;;;;;;5134602;27;20026;-69
2023/12/31 04:14:31;;;;;;;1.80;1.70;;;8.30;66.20;;;;;;5116203;28;20023;-68
2023/12/31 04:16:57;;;;;;;1.98;1.88;;;8.30;66.10;;;;;;5138213;27;20042;-68
2023/12/31 04:19:23;;;;;;;2.22;2.05;;;8.30;66.10;;;;;;5120527;27;20027;-67
2023/12/31 04:21:48;;;;;;;2.00;1.80;;;8.30;66.20;;;;;;5120263;27;20023;-68
2023/12/31 04:24:14;;;;;;;1.90;1.80;;;8.20;66.00;;;;;;5127002;27;20023;-68
2023/12/31 04:26:46;;;;;;;2.92;2.00;;;8.20;66.10;;;;;;5116743;28;20030;-70
2023/12/31 04:29:12;;;;;;;2.05;1.90;;;8.20;66.10;;;;;;5117945;28;20074;-68
2023/12/31 04:31:45;;;;;;;2.05;1.95;;;8.20;66.20;;;;;;5099787;28;20024;-68
2023/12/31 04:34:11;;;;;;;1.98;1.88;;;8.20;66.10;;;;;;5099532;28;20035;-69
2023/12/31 04:36:37;;;;;;;2.03;1.83;;;8.20;66.10;;;;;;5117690;28;20031;-68
2023/12/31 04:39:03;;;;;;;1.98;1.88;;;8.10;66.10;;;;;;5117897;28;20043;-68
2023/12/31 04:41:28;;;;;;;2.10;1.90;;;8.10;66.10;;;;;;5106183;27;20034;-68
2023/12/31 04:43:54;;;;;;;2.00;1.90;;;8.10;66.20;;;;;;5137531;27;20027;-68
2023/12/31 04:46:20;;;;;;;2.10;2.00;;;8.10;66.20;;;;;;5138130;27;20465;-68
2023/12/31 04:48:46;;;;;;;2.10;1.95;;;8.10;66.20;;;;;;5119294;27;20035;-69
2023/12/31 04:51:26;;;;;;;2.50;2.00;;;8.10;66.10;;;;;;5119339;27;20027;-69
2023/12/31 04:53:54;;;;;;;2.05;1.85;;;8.10;66.10;;;;;;5134814;27;20019;-68
2023/12/31 04:56:21;;;;;;;2.00;1.90;;;8.10;66.10;;;;;;5116287;28;20028;-69
2023/12/31 04:58:52;;;;;;;2.03;1.77;;;8.10;66.10;;;;;;5130660;27;20091;-69
2023/12/31 05:01:18;;;;;;;1.85;1.75;;;8.10;66.10;;;;;;5119367;27;20047;-69
2023/12/31 05:03:46;;;;;;;2.08;1.88;;;8.10;66.10;;;;;;5115642;28;20024;-68
2023/12/31 05:06:13;;;;;;;2.00;1.83;;;8.10;66.10;;;;;;5119049;27;20020;-68
2023/12/31 05:08:43;;;;;;;3.40;2.00;;;8.10;66.00;;;;;;5103884;27;20031;-68
2023/12/31 05:11:12;;;;;;;2.15;2.00;;;8.10;66.00;;;;;;5115841;28;20115;-68
2023/12/31 05:13:39;;;;;;;1.90;1.80;;;8.10;66.10;;;;;;5118540;27;20376;-69
2023/12/31 05:16:13;;;;;;;2.08;1.88;;;8.10;66.10;;;;;;5118821;27;20106;-69
2023/12/31 05:18:52;;;;;;;2.42;2.08;;;8.10;66.10;;;;;;5115155;28;20036;-68
2023/12/31 05:21:18;;;;;;;2.22;2.03;;;8.10;66.00;;;;;;5119509;27;20031;-70
2023/12/31 05:23:43;;;;;;;2.13;1.92;;;8.10;65.90;;;;;;5115577;28;20164;-69
2023/12/31 05:26:09;;;;;;;2.10;1.90;;;8.10;65.90;;;;;;5117312;28;20078;-69
2023/12/31 05:28:35;;;;;;;2.28;2.00;;;8.10;65.90;;;;;;5127269;27;20031;-70
2023/12/31 05:31:01;;;;;;;1.90;1.80;;;8.10;65.90;;;;;;5137730;27;20027;-70
2023/12/31 05:33:27;;;;;;;2.80;2.17;;;8.10;65.90;;;;;;5114510;28;20522;-69
2023/12/31 05:35:52;;;;;;;2.85;2.22;;;8.10;65.90;;;;;;5117775;27;20047;-68
2023/12/31 05:38:19;;;;;;;1.90;1.80;;;8.10;65.90;;;;;;5118352;27;20030;-68
2023/12/31 05:40:45;;;;;;;1.90;1.80;;;8.10;65.90;;;;;;5114989;28;20535;-68
2023/12/31 05:43:11;;;;;;;2.45;2.15;;;8.10;65.80;;;;;;5118431;27;20110;-68
2023/12/31 05:45:37;;;;;;;2.35;2.00;;;8.10;65.80;;;;;;5136829;27;20027;-68
2023/12/31 05:48:03;;;;;;;2.30;2.10;;;8.10;65.80;;;;;;5117536;27;20031;-68
2023/12/31 05:50:29;;;;;;;3.13;2.08;;;8.10;65.80;;;;;;5118513;27;20487;-69
2023/12/31 05:52:55;;;;;;;2.00;1.90;;;8.00;65.80;;;;;;5114553;28;20024;-70
2023/12/31 05:55:21;;;;;;;2.28;2.00;;;8.10;65.80;;;;;;5127762;27;20080;-69
2023/12/31 05:57:47;;;;;;;2.30;2.10;;;8.00;65.70;;;;;;5129707;27;20114;-68
2023/12/31 06:00:13;;;;;;;2.08;1.98;;;8.10;65.80;;;;;;5118261;27;20027;-69
2023/12/31 06:02:40;;;;;;;2.30;2.10;;;8.00;65.70;;;;;;5103814;28;20039;-69
2023/12/31 06:05:06;;;;;;;2.55;2.10;;;8.00;65.80;;;;;;5115372;27;20030;-68
2023/12/31 06:07:32;;;;;;;2.40;2.20;;;8.00;65.80;;;;;;5116456;27;20469;-69
2023/12/31 06:09:58;;;;;;;2.40;2.10;;;8.00;65.80;;;;;;5117935;27;20019;-69
2023/12/31 06:12:24;;;;;;;2.10;2.00;;;8.00;65.80;;;;;;5118006;27;20381;-68
2023/12/31 06:14:50;;;;;;;2.33;2.15;;;8.10;65.80;;;;;;5118172;27;20030;-69
2023/12/31 06:17:16;;;;;;;2.30;2.10;;;8.10;65.70;;;;;;5123767;27;20089;-68
2023/12/31 06:19:42;;;;;;;2.42;2.22;;;8.10;65.70;;;;;;5116038;28;20023;-70
2023/12/31 06:22:07;;;;;;;2.40;2.20;;;8.10;65.70;;;;;;5097425;28;20050;-69
2023/12/31 06:24:33;;;;;;;2.85;2.30;;;8.10;65.70;;;;;;5097464;28;20055;-69
2023/12/31 06:27:00;;;;;;;2.17;2.08;;;8.10;65.70;;;;;;5110011;27;20426;-71
2023/12/31 06:29:26;;;;;;;2.38;2.17;;;8.10;65.70;;;;;;5117860;27;20083;-68
2023/12/31 06:31:52;;;;;;;5.20;2.10;;;8.20;65.70;;;;;;5118171;27;20110;-69
2023/12/31 06:34:18;;;;;;;3.30;2.30;;;8.20;65.70;;;;;;5136262;27;20524;-68
2023/12/31 06:36:43;;;;;;;2.75;2.22;;;8.20;65.60;;;;;;5136029;27;20031;-69
2023/12/31 06:39:12;;;;;;;2.65;2.35;;;8.20;65.60;;;;;;5115337;27;20035;-68
2023/12/31 06:41:38;;;;;;;2.42;2.20;;;8.20;65.60;;;;;;5113597;28;20032;-68
2023/12/31 06:44:04;;;;;;;2.70;2.33;;;8.20;65.60;;;;;;5114191;28;20027;-67
2023/12/31 06:46:30;;;;;;;2.28;2.00;;;8.20;65.60;;;;;;5115267;28;20057;-69
2023/12/31 06:48:56;;;;;;;2.45;2.00;;;8.20;65.60;;;;;;5118851;27;20162;-69
2023/12/31 06:51:22;;;;;;;2.42;2.22;;;8.20;65.50;;;;;;5117375;27;20480;-69
2023/12/31 06:53:48;;;;;;;2.75;2.10;;;8.20;65.50;;;;;;5116078;27;20031;-69
2023/12/31 06:56:13;;;;;;;2.20;2.00;;;8.20;65.50;;;;;;5119320;27;20023;-68
2023/12/31 06:58:39;;;;;;;2.30;2.10;;;8.20;65.40;;;;;;5126601;27;20036;-70
2023/12/31 07:01:05;;;;;;;2.25;2.05;;;8.30;65.50;;;;;;5115045;28;20427;-69
2023/12/31 07:03:31;;;;;;;2.45;2.20;;;8.30;65.50;;;;;;5115560;27;20031;-68
2023/12/31 07:05:57;;;;;;;3.28;2.38;;;8.30;65.50;;;;;;5113225;28;20035;-69
2023/12/31 07:08:23;;;;;;;2.63;2.13;;;8.30;65.50;;;;;;5116187;27;20095;-69
2023/12/31 07:10:51;;;;;;;2.30;2.10;;;8.30;65.50;;;;;;5116779;27;20059;-70
2023/12/31 07:13:17;;;;;;;3.00;2.42;;;8.30;65.40;;;;;;5116546;27;20086;-70
2023/12/31 07:15:43;;;;;;;2.70;2.30;;;8.30;65.40;;;;;;5117096;27;20023;-68
2023/12/31 07:18:09;;;;;;;2.47;2.20;;;8.40;65.40;;;;;;5131502;27;20023;-69
2023/12/31 07:20:35;;;;;;;2.85;2.30;;;8.40;65.30;;;;;;5116793;27;20500;-71
2023/12/31 07:23:01;;;;;;;2.80;2.58;;;8.40;65.30;;;;;;5114745;27;20495;-68
2023/12/31 07:25:28;;;;;;;2.20;2.00;;;8.40;65.30;;;;;;5134146;27;20024;-67
2023/12/31 07:27:55;;;;;;;2.50;2.15;;;8.50;65.30;;;;;;5114529;28;20027;-74
2023/12/31 07:30:20;;;;;;;2.67;2.33;;;8.50;65.30;;;;;;5122814;27;20027;-69
2023/12/31 07:32:46;;;;;;;2.30;2.10;;;8.50;65.30;;;;;;5133481;27;20445;-69
2023/12/31 07:35:12;;;;;;;2.53;2.28;;;8.50;65.20;;;;;;5099323;27;20057;-70
2023/12/31 07:37:38;;;;;;;2.45;2.25;;;8.50;65.20;;;;;;5112032;28;20032;-69
2023/12/31 07:40:06;;;;;;;2.45;2.25;;;8.50;65.20;;;;;;5113956;27;20525;-70
2023/12/31 07:42:32;;;;;;;2.58;2.33;;;8.50;65.30;;;;;;5116470;27;20465;-69
2023/12/31 07:44:58;;;;;;;3.17;2.10;;;8.50;65.30;;;;;;5135401;27;20024;-69
2023/12/31 07:47:24;;;;;;;3.05;2.22;;;8.50;65.80;;;;;;5134687;27;20114;-68
2023/12/31 07:49:49;;;;;;;3.47;2.50;;;8.40;65.30;;;;;;5132613;27;20027;-69
2023/12/31 07:52:15;;;;;;;2.72;2.30;;;8.40;65.30;;;;;;5115959;28;20362;-68
2023/12/31 07:54:41;;;;;;;2.72;2.30;;;8.40;65.30;;;;;;5134415;27;20793;-70
2023/12/31 07:57:07;;;;;;;2.60;2.30;;;8.40;65.30;;;;;;5116041;28;20038;-67
2023/12/31 07:59:35;;;;;;;2.65;2.10;;;8.50;65.40;;;;;;5115822;27;20114;-69
2023/12/31 08:02:02;;;;;;;2.60;2.40;;;8.40;65.30;;;;;;5115269;28;20055;-71
2023/12/31 08:04:28;;;;;;;2.67;2.25;;;8.40;65.30;;;;;;5113333;28;20035;-79
2023/12/31 08:06:54;;;;;;;2.50;2.30;;;8.40;65.30;;;;;;5113815;28;20031;-79
2023/12/31 08:09:20;;;;;;;2.70;2.20;;;8.40;65.30;;;;;;5114227;28;20043;-79
2023/12/31 08:11:46;;;;;;;3.15;2.42;;;8.50;65.40;;;;;;5114175;28;20032;-78
2023/12/31 08:14:12;;;;;;;2.78;2.22;;;8.50;65.40;;;;;;5112951;28;20020;-75
2023/12/31 08:16:38;;;;;;;3.10;2.40;;;8.50;65.30;;;;;;5092770;28;20020;-73
2023/12/31 08:19:04;;;;;;;2.42;2.22;;;8.50;65.30;;;;;;5092226;28;20558;-73
2023/12/31 08:21:30;;;;;;;2.40;2.20;;;8.50;65.40;;;;;;5092170;28;20120;-74
2023/12/31 08:23:57;;;;;;;3.85;2.20;;;8.50;65.30;;;;;;5092260;28;20039;-76
2023/12/31 08:26:23;;;;;;;2.67;2.20;;;8.50;65.30;;;;;;5093541;28;20557;-78
2023/12/31 08:28:49;;;;;;;2.33;2.13;;;8.50;65.30;;;;;;5092259;28;20123;-78
2023/12/31 08:31:16;;;;;;;2.72;2.30;;;8.50;65.20;;;;;;5093101;28;20024;-77
2023/12/31 08:33:42;;;;;;;3.35;2.30;;;8.50;65.20;;;;;;5092061;28;20039;-77
2023/12/31 08:36:08;;;;;;;4.25;2.67;;;8.50;65.20;;;;;;5091645;28;20028;-79
2023/12/31 08:38:34;;;;;;;3.00;2.22;;;8.50;65.20;;;;;;5092531;28;20128;-73
2023/12/31 08:41:00;;;;;;;2.10;1.90;;;8.50;65.20;;;;;;5093249;28;20020;-80
2023/12/31 08:43:26;;;;;;;3.03;2.40;;;8.50;65.20;;;;;;5093211;28;20031;-72
2023/12/31 08:45:51;;;;;;;3.22;2.40;;;8.60;65.10;;;;;;5095414;28;20028;-72
2023/12/31 08:48:18;;;;;;;2.60;2.40;;;8.60;65.20;;;;;;5092160;28;20111;-75
2023/12/31 08:50:44;;;;;;;2.40;2.17;;;8.60;65.50;;;;;;5093046;28;20084;-76
2023/12/31 08:53:10;;;;;;;2.63;2.38;;;8.60;65.60;;;;;;5104927;28;20031;-76
2023/12/31 08:55:36;;;;;;;2.63;2.20;;;8.60;65.60;;;;;;5108991;28;20032;-75
2023/12/31 08:58:02;;;;;;;2.30;2.10;;;8.60;65.50;;;;;;5092265;28;20035;-73
2023/12/31 09:00:28;;;;;;;2.40;2.20;;;8.70;65.40;;;;;;5093962;28;20371;-73
2023/12/31 09:02:54;;;;;;;3.00;2.15;;;8.70;65.40;;;;;;5115152;28;20028;-75
2023/12/31 09:05:20;;;;;;;2.50;2.30;;;8.70;65.30;;;;;;5113062;27;20024;-75
2023/12/31 09:07:46;;;;;;;2.47;2.22;;;8.70;65.30;;;;;;5118145;27;20401;-74
2023/12/31 09:10:12;;;;;;;2.42;2.20;;;8.70;65.30;;;;;;5117438;28;20032;-73
2023/12/31 09:12:38;;;;;;;2.85;2.40;;;8.70;65.20;;;;;;5105687;28;20031;-72
2023/12/31 09:15:05;;;;;;;3.75;2.42;;;8.80;65.20;;;;;;5100860;28;20386;-71
2023/12/31 09:17:31;;;;;;;2.42;2.20;;;8.70;65.10;;;;;;5098763;28;20027;-72
2023/12/31 09:19:56;;;;;;;2.63;2.25;;;8.80;65.20;;;;;;5116853;28;20546;-73
2023/12/31 09:22:22;;;;;;;2.75;2.33;;;8.70;65.10;;;;;;5102340;27;20072;-71
2023/12/31 09:24:51;;;;;;;3.00;2.33;;;8.80;65.10;;;;;;5119101;27;20024;-71
2023/12/31 09:27:18;;;;;;;2.80;2.28;;;8.80;65.10;;;;;;5118855;27;20457;-72
2023/12/31 09:29:45;;;;;;;3.45;2.50;;;8.80;65.00;;;;;;5103557;28;20135;-72
2023/12/31 09:32:10;;;;;;;2.28;2.10;;;8.80;64.90;;;;;;5126064;27;20136;-72
2023/12/31 09:34:36;;;;;;;2.40;2.20;;;8.80;64.90;;;;;;5118682;27;20484;-72
2023/12/31 09:37:02;;;;;;;4.00;2.33;;;8.80;64.90;;;;;;5118876;27;20038;-73
2023/12/31 09:39:28;;;;;;;2.63;2.15;;;8.80;64.90;;;;;;5115291;28;20412;-73
2023/12/31 09:41:57;;;;;;;2.63;2.30;;;8.80;64.90;;;;;;5118503;27;20103;-72
2023/12/31 09:44:23;;;;;;;4.97;2.80;;;8.80;64.90;;;;;;5118873;27;20358;-74
2023/12/31 09:46:59;;;;;;;3.33;2.10;;;8.80;64.80;;;;;;5118689;27;20023;-72
2023/12/31 09:49:25;;;;;;;2.47;2.28;;;8.80;64.80;;;;;;5112538;28;20058;-72
2023/12/31 09:51:51;;;;;;;7.57;5.65;;;8.80;64.80;;;;;;5107989;28;20024;-73
2023/12/31 09:54:20;;;;;;;2.42;2.20;;;8.90;65.10;;;;;;5114826;28;20035;-73
2023/12/31 09:56:47;;;;;;;2.97;2.40;;;8.90;65.90;;;;;;5094751;28;20365;-73
2023/12/31 09:59:15;;;;;;;2.58;2.25;;;9.00;66.50;;;;;;5116649;28;20032;-72
2023/12/31 10:01:42;;;;;;;3.63;2.47;;;9.10;66.30;;;;;;5097874;28;20066;-72
2023/12/31 10:04:09;;;;;;;2.53;2.30;;;9.10;66.10;;;;;;5116202;28;20032;-71
2023/12/31 10:06:37;;;;;;;3.42;2.58;;;9.20;65.70;;;;;;5097657;28;20030;-74
2023/12/31 10:09:06;;;;;;;3.20;2.30;;;9.10;65.60;;;;;;5115514;28;20034;-72
2023/12/31 10:11:32;;;;;;;4.07;2.60;;;9.10;65.30;;;;;;5116208;28;20035;-72
2023/12/31 10:13:58;;;;;;;6.28;2.25;;;9.20;65.30;;;;;;5114596;28;20028;-75
2023/12/31 10:16:34;;;;;;;3.13;2.40;;;9.20;65.10;;;;;;5109751;28;20049;-73
2023/12/31 10:19:00;;;;;;;1.98;1.85;;;9.20;65.10;;;;;;5097593;28;20019;-72
2023/12/31 10:21:26;;;;;;;3.08;2.40;;;9.20;64.90;;;;;;5106501;28;20522;-73
2023/12/31 10:23:52;;;;;;;3.75;2.08;;;9.20;64.80;;;;;;5114377;28;20031;-73
2023/12/31 10:26:18;;;;;;;2.45;2.13;;;9.20;64.70;;;;;;5097519;28;20378;-72
2023/12/31 10:28:44;;;;;;;2.92;2.28;;;9.20;64.60;;;;;;5115423;28;20169;-72
2023/12/31 10:31:10;;;;;;;2.55;2.20;;;9.10;64.50;;;;;;5104496;28;20031;-73
2023/12/31 10:33:37;;;;;;;2.55;2.10;;;9.10;64.50;;;;;;5114335;28;20031;-73
2023/12/31 10:36:06;;;;;;;2.30;2.10;;;9.10;64.50;;;;;;5114387;28;20031;-73
2023/12/31 10:38:48;;;;;;;2.70;2.20;;;9.10;64.50;;;;;;5114632;28;20027;-71
2023/12/31 10:41:24;;;;;;;2.88;2.30;;;9.10;65.10;;;;;;5115294;28;20023;-72
2023/12/31 10:43:54;;;;;;;2.80;2.40;;;9.00;64.50;;;;;;5114503;28;20426;-72
2023/12/31 10:46:24;;;;;;;3.10;2.28;;;9.10;64.60;;;;;;5114760;28;20055;-73
2023/12/31 10:49:03;;;;;;;2.47;2.10;;;9.10;64.50;;;;;;5096741;28;20397;-72
2023/12/31 10:51:31;;;;;;;2.45;2.25;;;9.10;64.50;;;;;;5096443;28;20031;-72
2023/12/31 10:54:05;;;;;;;2.05;1.95;;;9.10;64.50;;;;;;5096362;28;20073;-72
2023/12/31 10:56:32;;;;;;;2.30;2.10;;;9.10;64.50;;;;;;5093780;28;20388;-72
2023/12/31 10:58:58;;;;;;;2.58;2.08;;;9.10;64.40;;;;;;5115000;28;20038;-72
2023/12/31 11:01:27;;;;;;;3.08;2.25;;;9.20;64.40;;;;;;5115452;28;20043;-72
2023/12/31 11:03:54;;;;;;;2.63;2.30;;;9.20;64.40;;;;;;5116376;27;20465;-72
2023/12/31 11:06:19;;;;;;;2.60;2.40;;;9.20;64.30;;;;;;5120961;27;20080;-72
2023/12/31 11:08:46;;;;;;;2.40;2.20;;;9.20;64.30;;;;;;5135152;27;20442;-72
2023/12/31 11:11:18;;;;;;;2.58;2.38;;;9.20;64.20;;;;;;5105224;27;20106;-72
2023/12/31 11:13:49;;;;;;;2.63;2.40;;;9.20;64.20;;;;;;5110997;27;20027;-71
2023/12/31 11:16:40;;;;;;;2.10;1.95;;;9.20;64.20;;;;;;5103040;28;20023;-73
2023/12/31 11:19:15;;;;;;;2.30;2.10;;;9.20;64.00;;;;;;5103812;27;20027;-72
2023/12/31 11:22:12;;;;;;;2.30;2.10;;;9.20;64.10;;;;;;5129097;27;20016;-72
2023/12/31 11:24:38;;;;;;;2.55;2.08;;;9.30;64.20;;;;;;5097574;27;20066;-73
2023/12/31 11:27:15;;;;;;;2.63;2.20;;;9.30;64.10;;;;;;5117292;27;20417;-71
2023/12/31 11:29:52;;;;;;;3.85;2.40;;;9.30;64.00;;;;;;5076281;28;20030;-74
2023/12/31 11:32:19;;;;;;;2.70;2.10;;;9.20;63.90;;;;;;5117555;27;20080;-73
2023/12/31 11:34:53;;;;;;;2.63;2.25;;;9.30;64.00;;;;;;5096412;28;20031;-74
2023/12/31 11:37:18;;;;;;;2.33;2.10;;;9.30;64.00;;;;;;5098004;27;20039;-77
2023/12/31 11:39:48;;;;;;;2.20;2.00;;;9.30;64.00;;;;;;5098120;28;20036;-73
2023/12/31 11:42:16;;;;;;;2.30;2.05;;;9.30;64.00;;;;;;5117068;27;20066;-71
2023/12/31 11:44:46;;;;;;;5.45;2.15;;;9.30;64.00;;;;;;5124286;27;20515;-74
2023/12/31 11:47:25;;;;;;;5.65;1.92;;;9.40;64.40;;;;;;5128019;27;20414;-74
2023/12/31 11:49:55;;;;;;;2.55;2.10;;;9.50;64.50;;;;;;5097574;28;20039;-77
2023/12/31 11:52:31;;;;;;;3.20;1.90;;;9.50;64.40;;;;;;5113123;28;20027;-72
2023/12/31 11:54:59;;;;;;;2.50;2.30;;;9.60;64.30;;;;;;5096854;28;20114;-73
2023/12/31 11:57:26;;;;;;;2.42;2.22;;;9.60;64.20;;;;;;5095544;28;20038;-73
2023/12/31 11:59:54;;;;;;;3.40;2.10;;;9.70;64.10;;;;;;5095492;28;20084;-73
2023/12/31 12:02:21;;;;;;;3.20;2.15;;;9.70;63.90;;;;;;5120594;27;20085;-73
2023/12/31 12:04:47;;;;;;;2.08;1.88;;;9.70;63.80;;;;;;5134159;27;20453;-73
2023/12/31 12:07:13;;;;;;;2.65;2.38;;;9.70;63.70;;;;;;5134297;28;20030;-75
2023/12/31 12:09:40;;;;;;;2.05;1.90;;;9.80;63.70;;;;;;5116313;28;20035;-75
2023/12/31 12:12:08;;;;;;;2.13;1.92;;;9.70;63.60;;;;;;5116192;28;20034;-75
2023/12/31 12:14:34;;;;;;;2.28;2.08;;;9.80;63.70;;;;;;5134736;27;20032;-74
2023/12/31 12:17:00;;;;;;;2.35;2.10;;;9.80;63.50;;;;;;5126045;28;20046;-75
2023/12/31 12:19:27;;;;;;;2.30;1.95;;;9.90;63.40;;;;;;5113274;28;20097;-74
2023/12/31 12:21:53;;;;;;;2.33;2.15;;;9.90;63.30;;;;;;5117882;28;20049;-73
2023/12/31 12:24:19;;;;;;;2.22;1.90;;;9.90;63.10;;;;;;5112433;28;20024;-73
2023/12/31 12:26:49;;;;;;;2.10;1.90;;;9.90;63.00;;;;;;5112835;28;20059;-74
2023/12/31 12:29:16;;;;;;;2.22;2.00;;;9.80;63.00;;;;;;5112199;28;20028;-74
2023/12/31 12:31:47;;;;;;;2.33;2.10;;;9.80;62.90;;;;;;5114867;28;20072;-73
2023/12/31 12:34:17;;;;;;;2.15;1.95;;;9.80;62.90;;;;;;5112551;28;20024;-74
2023/12/31 12:36:47;;;;;;;2.38;2.00;;;9.70;62.90;;;;;;5115544;27;20058;-72
2023/12/31 12:39:17;;;;;;;3.05;2.20;;;9.70;62.90;;;;;;5130118;27;20023;-73
2023/12/31 12:41:48;;;;;;;2.70;2.10;;;9.70;62.90;;;;;;5119887;27;20372;-75
2023/12/31 12:44:14;;;;;;;3.15;2.85;;;9.70;62.80;;;;;;5132894;27;20346;-74
2023/12/31 12:46:41;;;;;;;2.17;2.00;;;9.70;62.60;;;;;;5124325;27;20458;-74
2023/12/31 12:49:08;;;;;;;2.50;2.30;;;9.70;62.60;;;;;;5115515;28;20031;-78
2023/12/31 12:51:34;;;;;;;2.55;1.77;;;9.70;62.60;;;;;;5116546;28;20111;-75
2023/12/31 12:54:02;;;;;;;2.05;1.83;;;9.60;62.50;;;;;;5117560;27;20027;-76
2023/12/31 12:56:28;;;;;;;2.40;2.17;;;9.60;62.50;;;;;;5135920;27;20027;-74